sensor_id;sensor_type;location;lat;lon;timestamp;P1;durP1;ratioP1;P2;durP2;ratioP2
72493;SDS011;60520;49.182;-0.348;2022-12-18T00:02:00;4.35;;;3.60;;
72493;SDS011;60520;49.182;-0.348;2022-12-18T00:04:28;5.18;;;3.72;;
72493;SDS011;60520;49.182;-0.348;2022-12-18T00:06:55;4.60;;;3.45;;
72493;SDS011;60520;49.182;-0.348;2022-12-18T00:09:22;4.00;;;3.50;;
72493;SDS011;60520;49.182;-0.348;2022-12-18T00:11:49;4.35;;;3.40;;
72493;SDS011;60520;49.182;-0.348;2022-12-18T00:14:18;4.15;;;3.13;;
72493;SDS011;60520;49.182;-0.348;2022-12-18T00:16:45;4.88;;;3.72;;
72493;SDS011;60520;49.182;-0.348;2022-12-18T00:19:13;4.07;;;3.10;;
72493;SDS011;60520;49.182;-0.348;2022-12-18T00:21:40;3.88;;;3.33;;
72493;SDS011;60520;49.182;-0.348;2022-12-18T00:24:08;4.63;;;3.25;;
72493;SDS011;60520;49.182;-0.348;2022-12-18T00:26:35;4.18;;;3.25;;
72493;SDS011;60520;49.182;-0.348;2022-12-18T00:29:04;4.50;;;3.22;;
72493;SDS011;60520;49.182;-0.348;2022-12-18T00:31:33;3.58;;;3.20;;
72493;SDS011;60520;49.182;-0.348;2022-12-18T00:34:00;4.35;;;3.53;;
72493;SDS011;60520;49.182;-0.348;2022-12-18T00:36:28;3.85;;;3.00;;
72493;SDS011;60520;49.182;-0.348;2022-12-18T00:38:56;4.38;;;3.45;;
72493;SDS011;60520;49.182;-0.348;2022-12-18T00:41:24;4.88;;;3.53;;
72493;SDS011;60520;49.182;-0.348;2022-12-18T00:44:09;4.63;;;3.30;;
72493;SDS011;60520;49.182;-0.348;2022-12-18T00:46:38;5.70;;;3.80;;
72493;SDS011;60520;49.182;-0.348;2022-12-18T00:49:05;4.15;;;3.35;;
72493;SDS011;60520;49.182;-0.348;2022-12-18T00:51:32;4.30;;;3.38;;
72493;SDS011;60520;49.182;-0.348;2022-12-18T00:54:00;6.22;;;3.53;;
72493;SDS011;60520;49.182;-0.348;2022-12-18T00:56:27;3.72;;;3.20;;
72493;SDS011;60520;49.182;-0.348;2022-12-18T00:58:54;4.00;;;3.30;;
72493;SDS011;60520;49.182;-0.348;2022-12-18T01:01:21;4.90;;;3.65;;
72493;SDS011;60520;49.182;-0.348;2022-12-18T01:03:49;3.97;;;3.13;;
72493;SDS011;60520;49.182;-0.348;2022-12-18T01:06:16;4.32;;;3.63;;
72493;SDS011;60520;49.182;-0.348;2022-12-18T01:08:44;3.72;;;3.08;;
72493;SDS011;60520;49.182;-0.348;2022-12-18T01:11:12;3.75;;;3.00;;
72493;SDS011;60520;49.182;-0.348;2022-12-18T01:13:39;4.00;;;3.17;;
72493;SDS011;60520;49.182;-0.348;2022-12-18T01:16:06;4.50;;;3.28;;
72493;SDS011;60520;49.182;-0.348;2022-12-18T01:18:33;4.00;;;3.15;;
72493;SDS011;60520;49.182;-0.348;2022-12-18T01:21:02;3.75;;;3.00;;
72493;SDS011;60520;49.182;-0.348;2022-12-18T01:23:31;4.00;;;3.33;;
72493;SDS011;60520;49.182;-0.348;2022-12-18T01:26:03;4.85;;;3.22;;
72493;SDS011;60520;49.182;-0.348;2022-12-18T01:28:30;3.80;;;3.30;;
72493;SDS011;60520;49.182;-0.348;2022-12-18T01:30:57;3.58;;;3.15;;
72493;SDS011;60520;49.182;-0.348;2022-12-18T01:33:24;3.40;;;3.10;;
72493;SDS011;60520;49.182;-0.348;2022-12-18T01:35:52;4.80;;;2.92;;
72493;SDS011;60520;49.182;-0.348;2022-12-18T01:38:20;4.60;;;3.28;;
72493;SDS011;60520;49.182;-0.348;2022-12-18T01:40:47;4.85;;;3.33;;
72493;SDS011;60520;49.182;-0.348;2022-12-18T01:43:14;3.92;;;3.17;;
72493;SDS011;60520;49.182;-0.348;2022-12-18T01:45:41;4.20;;;3.20;;
72493;SDS011;60520;49.182;-0.348;2022-12-18T01:48:08;4.00;;;3.10;;
72493;SDS011;60520;49.182;-0.348;2022-12-18T01:50:36;4.57;;;3.40;;
72493;SDS011;60520;49.182;-0.348;2022-12-18T01:53:05;5.00;;;3.67;;
72493;SDS011;60520;49.182;-0.348;2022-12-18T01:55:37;4.00;;;3.08;;
72493;SDS011;60520;49.182;-0.348;2022-12-18T01:58:06;5.07;;;3.75;;
72493;SDS011;60520;49.182;-0.348;2022-12-18T02:00:33;4.78;;;3.38;;
72493;SDS011;60520;49.182;-0.348;2022-12-18T02:03:01;4.32;;;2.95;;
72493;SDS011;60520;49.182;-0.348;2022-12-18T02:05:30;3.55;;;3.00;;
72493;SDS011;60520;49.182;-0.348;2022-12-18T02:08:01;4.03;;;3.63;;
72493;SDS011;60520;49.182;-0.348;2022-12-18T02:10:31;3.63;;;3.10;;
72493;SDS011;60520;49.182;-0.348;2022-12-18T02:13:02;4.25;;;3.13;;
72493;SDS011;60520;49.182;-0.348;2022-12-18T02:15:36;4.20;;;3.47;;
72493;SDS011;60520;49.182;-0.348;2022-12-18T02:18:07;3.80;;;3.05;;
72493;SDS011;60520;49.182;-0.348;2022-12-18T02:20:39;4.57;;;2.90;;
72493;SDS011;60520;49.182;-0.348;2022-12-18T02:23:10;3.22;;;2.75;;
72493;SDS011;60520;49.182;-0.348;2022-12-18T02:25:42;3.55;;;3.10;;
72493;SDS011;60520;49.182;-0.348;2022-12-18T02:28:13;4.78;;;3.15;;
72493;SDS011;60520;49.182;-0.348;2022-12-18T02:30:42;5.18;;;3.63;;
72493;SDS011;60520;49.182;-0.348;2022-12-18T02:33:10;5.05;;;3.35;;
72493;SDS011;60520;49.182;-0.348;2022-12-18T02:35:38;4.38;;;3.40;;
72493;SDS011;60520;49.182;-0.348;2022-12-18T02:38:06;4.22;;;3.28;;
72493;SDS011;60520;49.182;-0.348;2022-12-18T02:40:34;4.18;;;3.15;;
72493;SDS011;60520;49.182;-0.348;2022-12-18T02:43:07;3.97;;;3.03;;
72493;SDS011;60520;49.182;-0.348;2022-12-18T02:45:35;4.35;;;3.20;;
72493;SDS011;60520;49.182;-0.348;2022-12-18T02:48:03;4.10;;;3.33;;
72493;SDS011;60520;49.182;-0.348;2022-12-18T02:50:33;4.03;;;3.28;;
72493;SDS011;60520;49.182;-0.348;2022-12-18T02:53:04;4.82;;;3.70;;
72493;SDS011;60520;49.182;-0.348;2022-12-18T02:55:35;5.35;;;3.30;;
72493;SDS011;60520;49.182;-0.348;2022-12-18T02:58:09;3.50;;;2.90;;
72493;SDS011;60520;49.182;-0.348;2022-12-18T03:00:41;4.30;;;3.15;;
72493;SDS011;60520;49.182;-0.348;2022-12-18T03:03:09;3.25;;;2.75;;
72493;SDS011;60520;49.182;-0.348;2022-12-18T03:05:39;3.83;;;3.17;;
72493;SDS011;60520;49.182;-0.348;2022-12-18T03:08:08;4.13;;;3.28;;
72493;SDS011;60520;49.182;-0.348;2022-12-18T03:10:38;3.33;;;2.97;;
72493;SDS011;60520;49.182;-0.348;2022-12-18T03:13:08;4.43;;;3.20;;
72493;SDS011;60520;49.182;-0.348;2022-12-18T03:15:36;3.47;;;2.90;;
72493;SDS011;60520;49.182;-0.348;2022-12-18T03:18:06;3.75;;;3.10;;
72493;SDS011;60520;49.182;-0.348;2022-12-18T03:20:35;4.75;;;3.33;;
72493;SDS011;60520;49.182;-0.348;2022-12-18T03:23:06;3.35;;;2.92;;
72493;SDS011;60520;49.182;-0.348;2022-12-18T03:25:35;4.18;;;3.00;;
72493;SDS011;60520;49.182;-0.348;2022-12-18T03:28:03;3.78;;;3.05;;
72493;SDS011;60520;49.182;-0.348;2022-12-18T03:30:33;3.47;;;2.70;;
72493;SDS011;60520;49.182;-0.348;2022-12-18T03:33:02;4.15;;;3.28;;
72493;SDS011;60520;49.182;-0.348;2022-12-18T03:35:33;4.32;;;3.40;;
72493;SDS011;60520;49.182;-0.348;2022-12-18T03:38:01;4.25;;;3.17;;
72493;SDS011;60520;49.182;-0.348;2022-12-18T03:40:29;4.05;;;3.35;;
72493;SDS011;60520;49.182;-0.348;2022-12-18T03:42:59;3.70;;;2.95;;
72493;SDS011;60520;49.182;-0.348;2022-12-18T03:45:31;3.97;;;3.00;;
72493;SDS011;60520;49.182;-0.348;2022-12-18T03:47:59;3.95;;;3.10;;
72493;SDS011;60520;49.182;-0.348;2022-12-18T03:50:30;3.78;;;3.00;;
72493;SDS011;60520;49.182;-0.348;2022-12-18T03:53:03;3.92;;;3.08;;
72493;SDS011;60520;49.182;-0.348;2022-12-18T03:55:32;4.40;;;3.10;;
72493;SDS011;60520;49.182;-0.348;2022-12-18T03:58:00;4.18;;;3.17;;
72493;SDS011;60520;49.182;-0.348;2022-12-18T04:00:28;3.67;;;3.00;;
72493;SDS011;60520;49.182;-0.348;2022-12-18T04:02:56;4.20;;;3.05;;
72493;SDS011;60520;49.182;-0.348;2022-12-18T04:05:24;3.75;;;3.00;;
72493;SDS011;60520;49.182;-0.348;2022-12-18T04:07:52;3.92;;;3.17;;
72493;SDS011;60520;49.182;-0.348;2022-12-18T04:10:21;4.47;;;3.00;;
72493;SDS011;60520;49.182;-0.348;2022-12-18T04:12:48;4.30;;;3.40;;
72493;SDS011;60520;49.182;-0.348;2022-12-18T04:15:15;3.97;;;2.78;;
72493;SDS011;60520;49.182;-0.348;2022-12-18T04:17:43;3.23;;;2.93;;
72493;SDS011;60520;49.182;-0.348;2022-12-18T04:20:13;4.97;;;3.30;;
72493;SDS011;60520;49.182;-0.348;2022-12-18T04:22:41;4.15;;;3.33;;
72493;SDS011;60520;49.182;-0.348;2022-12-18T04:25:11;3.97;;;3.05;;
72493;SDS011;60520;49.182;-0.348;2022-12-18T04:27:40;3.67;;;3.13;;
72493;SDS011;60520;49.182;-0.348;2022-12-18T04:30:07;4.32;;;3.33;;
72493;SDS011;60520;49.182;-0.348;2022-12-18T04:32:34;4.43;;;3.25;;
72493;SDS011;60520;49.182;-0.348;2022-12-18T04:35:02;3.40;;;3.08;;
72493;SDS011;60520;49.182;-0.348;2022-12-18T04:37:31;4.18;;;2.95;;
72493;SDS011;60520;49.182;-0.348;2022-12-18T04:39:58;3.53;;;3.05;;
72493;SDS011;60520;49.182;-0.348;2022-12-18T04:42:25;3.83;;;2.97;;
72493;SDS011;60520;49.182;-0.348;2022-12-18T04:44:54;3.63;;;2.90;;
72493;SDS011;60520;49.182;-0.348;2022-12-18T04:47:21;3.88;;;3.20;;
72493;SDS011;60520;49.182;-0.348;2022-12-18T04:49:48;3.65;;;3.08;;
72493;SDS011;60520;49.182;-0.348;2022-12-18T04:52:15;3.45;;;2.83;;
72493;SDS011;60520;49.182;-0.348;2022-12-18T04:54:42;4.32;;;3.30;;
72493;SDS011;60520;49.182;-0.348;2022-12-18T04:57:09;4.38;;;3.20;;
72493;SDS011;60520;49.182;-0.348;2022-12-18T04:59:36;3.58;;;3.15;;
72493;SDS011;60520;49.182;-0.348;2022-12-18T05:02:05;3.22;;;2.72;;
72493;SDS011;60520;49.182;-0.348;2022-12-18T05:04:32;3.97;;;3.53;;
72493;SDS011;60520;49.182;-0.348;2022-12-18T05:06:59;3.35;;;2.90;;
72493;SDS011;60520;49.182;-0.348;2022-12-18T05:09:26;4.53;;;2.97;;
72493;SDS011;60520;49.182;-0.348;2022-12-18T05:11:53;3.40;;;3.00;;
72493;SDS011;60520;49.182;-0.348;2022-12-18T05:14:20;3.22;;;2.75;;
72493;SDS011;60520;49.182;-0.348;2022-12-18T05:16:48;3.72;;;3.13;;
72493;SDS011;60520;49.182;-0.348;2022-12-18T05:19:16;4.03;;;3.22;;
72493;SDS011;60520;49.182;-0.348;2022-12-18T05:21:43;3.38;;;2.88;;
72493;SDS011;60520;49.182;-0.348;2022-12-18T05:24:10;4.50;;;3.20;;
72493;SDS011;60520;49.182;-0.348;2022-12-18T05:26:37;4.10;;;3.40;;
72493;SDS011;60520;49.182;-0.348;2022-12-18T05:29:04;3.72;;;2.85;;
72493;SDS011;60520;49.182;-0.348;2022-12-18T05:31:31;4.32;;;3.03;;
72493;SDS011;60520;49.182;-0.348;2022-12-18T05:33:59;4.30;;;3.38;;
72493;SDS011;60520;49.182;-0.348;2022-12-18T05:36:27;3.80;;;2.85;;
72493;SDS011;60520;49.182;-0.348;2022-12-18T05:38:54;3.78;;;2.95;;
72493;SDS011;60520;49.182;-0.348;2022-12-18T05:41:21;3.88;;;3.15;;
72493;SDS011;60520;49.182;-0.348;2022-12-18T05:43:48;4.03;;;3.13;;
72493;SDS011;60520;49.182;-0.348;2022-12-18T05:46:16;4.10;;;2.88;;
72493;SDS011;60520;49.182;-0.348;2022-12-18T05:48:44;4.00;;;3.10;;
72493;SDS011;60520;49.182;-0.348;2022-12-18T05:51:12;3.20;;;2.88;;
72493;SDS011;60520;49.182;-0.348;2022-12-18T05:53:42;4.22;;;2.90;;
72493;SDS011;60520;49.182;-0.348;2022-12-18T05:56:10;3.78;;;3.22;;
72493;SDS011;60520;49.182;-0.348;2022-12-18T05:58:37;4.47;;;3.05;;
72493;SDS011;60520;49.182;-0.348;2022-12-18T06:01:08;4.03;;;3.20;;
72493;SDS011;60520;49.182;-0.348;2022-12-18T06:03:36;3.65;;;2.80;;
72493;SDS011;60520;49.182;-0.348;2022-12-18T06:06:03;4.22;;;3.38;;
72493;SDS011;60520;49.182;-0.348;2022-12-18T06:08:31;3.45;;;2.80;;
72493;SDS011;60520;49.182;-0.348;2022-12-18T06:10:59;3.45;;;3.15;;
72493;SDS011;60520;49.182;-0.348;2022-12-18T06:13:26;3.22;;;2.85;;
72493;SDS011;60520;49.182;-0.348;2022-12-18T06:15:53;3.45;;;2.90;;
72493;SDS011;60520;49.182;-0.348;2022-12-18T06:18:20;4.93;;;3.40;;
72493;SDS011;60520;49.182;-0.348;2022-12-18T06:20:53;4.05;;;3.05;;
72493;SDS011;60520;49.182;-0.348;2022-12-18T06:23:21;3.55;;;3.10;;
72493;SDS011;60520;49.182;-0.348;2022-12-18T06:25:48;3.47;;;2.80;;
72493;SDS011;60520;49.182;-0.348;2022-12-18T06:28:17;4.10;;;3.25;;
72493;SDS011;60520;49.182;-0.348;2022-12-18T06:30:44;4.55;;;3.05;;
72493;SDS011;60520;49.182;-0.348;2022-12-18T06:33:11;4.63;;;3.10;;
72493;SDS011;60520;49.182;-0.348;2022-12-18T06:35:38;4.35;;;2.90;;
72493;SDS011;60520;49.182;-0.348;2022-12-18T06:38:05;4.07;;;3.10;;
72493;SDS011;60520;49.182;-0.348;2022-12-18T06:40:32;3.90;;;3.08;;
72493;SDS011;60520;49.182;-0.348;2022-12-18T06:43:00;4.15;;;2.95;;
72493;SDS011;60520;49.182;-0.348;2022-12-18T06:45:28;3.40;;;2.70;;
72493;SDS011;60520;49.182;-0.348;2022-12-18T06:47:55;4.20;;;3.20;;
72493;SDS011;60520;49.182;-0.348;2022-12-18T06:50:23;4.03;;;3.10;;
72493;SDS011;60520;49.182;-0.348;2022-12-18T06:52:51;3.30;;;2.72;;
72493;SDS011;60520;49.182;-0.348;2022-12-18T06:55:18;3.53;;;2.92;;
72493;SDS011;60520;49.182;-0.348;2022-12-18T06:57:45;3.33;;;2.90;;
72493;SDS011;60520;49.182;-0.348;2022-12-18T07:00:12;3.90;;;3.20;;
72493;SDS011;60520;49.182;-0.348;2022-12-18T07:02:41;3.50;;;2.90;;
72493;SDS011;60520;49.182;-0.348;2022-12-18T07:05:08;3.50;;;3.03;;
72493;SDS011;60520;49.182;-0.348;2022-12-18T07:07:35;3.47;;;2.90;;
72493;SDS011;60520;49.182;-0.348;2022-12-18T07:10:03;3.25;;;2.95;;
72493;SDS011;60520;49.182;-0.348;2022-12-18T07:12:30;3.65;;;2.83;;
72493;SDS011;60520;49.182;-0.348;2022-12-18T07:14:57;4.07;;;3.17;;
72493;SDS011;60520;49.182;-0.348;2022-12-18T07:17:24;3.67;;;3.03;;
72493;SDS011;60520;49.182;-0.348;2022-12-18T07:19:53;3.88;;;2.80;;
72493;SDS011;60520;49.182;-0.348;2022-12-18T07:22:20;3.35;;;2.95;;
72493;SDS011;60520;49.182;-0.348;2022-12-18T07:24:50;3.75;;;2.90;;
72493;SDS011;60520;49.182;-0.348;2022-12-18T07:27:17;3.60;;;2.90;;
72493;SDS011;60520;49.182;-0.348;2022-12-18T07:29:44;3.83;;;3.10;;
72493;SDS011;60520;49.182;-0.348;2022-12-18T07:32:11;4.00;;;3.17;;
72493;SDS011;60520;49.182;-0.348;2022-12-18T07:34:38;3.17;;;2.70;;
72493;SDS011;60520;49.182;-0.348;2022-12-18T07:37:06;3.70;;;3.10;;
72493;SDS011;60520;49.182;-0.348;2022-12-18T07:39:34;3.95;;;3.00;;
72493;SDS011;60520;49.182;-0.348;2022-12-18T07:42:01;3.55;;;3.05;;
72493;SDS011;60520;49.182;-0.348;2022-12-18T07:44:45;3.05;;;2.75;;
72493;SDS011;60520;49.182;-0.348;2022-12-18T07:47:12;3.47;;;2.88;;
72493;SDS011;60520;49.182;-0.348;2022-12-18T07:49:39;3.92;;;3.40;;
72493;SDS011;60520;49.182;-0.348;2022-12-18T07:52:08;3.88;;;3.15;;
72493;SDS011;60520;49.182;-0.348;2022-12-18T07:54:37;3.85;;;3.17;;
72493;SDS011;60520;49.182;-0.348;2022-12-18T07:57:05;3.63;;;3.00;;
72493;SDS011;60520;49.182;-0.348;2022-12-18T07:59:32;3.63;;;2.83;;
72493;SDS011;60520;49.182;-0.348;2022-12-18T08:01:59;5.30;;;3.05;;
72493;SDS011;60520;49.182;-0.348;2022-12-18T08:04:26;3.72;;;2.80;;
72493;SDS011;60520;49.182;-0.348;2022-12-18T08:06:53;3.55;;;2.88;;
72493;SDS011;60520;49.182;-0.348;2022-12-18T08:09:22;4.28;;;3.17;;
72493;SDS011;60520;49.182;-0.348;2022-12-18T08:11:49;3.55;;;2.90;;
72493;SDS011;60520;49.182;-0.348;2022-12-18T08:14:16;3.67;;;2.92;;
72493;SDS011;60520;49.182;-0.348;2022-12-18T08:16:43;3.88;;;3.00;;
72493;SDS011;60520;49.182;-0.348;2022-12-18T08:19:10;3.65;;;2.88;;
72493;SDS011;60520;49.182;-0.348;2022-12-18T08:21:40;3.65;;;2.80;;
72493;SDS011;60520;49.182;-0.348;2022-12-18T08:24:08;3.75;;;3.00;;
72493;SDS011;60520;49.182;-0.348;2022-12-18T08:26:37;3.92;;;3.17;;
72493;SDS011;60520;49.182;-0.348;2022-12-18T08:29:04;4.00;;;3.08;;
72493;SDS011;60520;49.182;-0.348;2022-12-18T08:31:31;4.07;;;3.17;;
72493;SDS011;60520;49.182;-0.348;2022-12-18T08:33:59;3.17;;;2.85;;
72493;SDS011;60520;49.182;-0.348;2022-12-18T08:36:26;3.70;;;3.00;;
72493;SDS011;60520;49.182;-0.348;2022-12-18T08:38:53;3.72;;;3.00;;
72493;SDS011;60520;49.182;-0.348;2022-12-18T08:41:20;3.83;;;3.00;;
72493;SDS011;60520;49.182;-0.348;2022-12-18T08:43:49;3.63;;;2.90;;
72493;SDS011;60520;49.182;-0.348;2022-12-18T08:46:36;3.92;;;3.10;;
72493;SDS011;60520;49.182;-0.348;2022-12-18T08:49:04;3.20;;;2.90;;
72493;SDS011;60520;49.182;-0.348;2022-12-18T08:51:31;3.53;;;2.95;;
72493;SDS011;60520;49.182;-0.348;2022-12-18T08:53:59;3.85;;;2.90;;
72493;SDS011;60520;49.182;-0.348;2022-12-18T08:56:26;3.78;;;3.22;;
72493;SDS011;60520;49.182;-0.348;2022-12-18T08:58:56;3.35;;;2.88;;
72493;SDS011;60520;49.182;-0.348;2022-12-18T09:01:23;3.78;;;2.78;;
72493;SDS011;60520;49.182;-0.348;2022-12-18T09:03:50;4.50;;;3.15;;
72493;SDS011;60520;49.182;-0.348;2022-12-18T09:06:18;3.42;;;2.97;;
72493;SDS011;60520;49.182;-0.348;2022-12-18T09:08:46;3.75;;;2.78;;
72493;SDS011;60520;49.182;-0.348;2022-12-18T09:11:14;5.28;;;3.30;;
72493;SDS011;60520;49.182;-0.348;2022-12-18T09:13:41;3.50;;;2.80;;
72493;SDS011;60520;49.182;-0.348;2022-12-18T09:16:10;3.85;;;2.70;;
72493;SDS011;60520;49.182;-0.348;2022-12-18T09:18:37;3.42;;;2.80;;
72493;SDS011;60520;49.182;-0.348;2022-12-18T09:21:08;3.78;;;3.13;;
72493;SDS011;60520;49.182;-0.348;2022-12-18T09:23:35;3.35;;;2.80;;
72493;SDS011;60520;49.182;-0.348;2022-12-18T09:26:02;3.47;;;2.78;;
72493;SDS011;60520;49.182;-0.348;2022-12-18T09:28:29;3.78;;;3.20;;
72493;SDS011;60520;49.182;-0.348;2022-12-18T09:30:56;3.72;;;3.00;;
72493;SDS011;60520;49.182;-0.348;2022-12-18T09:33:25;3.10;;;2.78;;
72493;SDS011;60520;49.182;-0.348;2022-12-18T09:35:52;3.58;;;2.88;;
72493;SDS011;60520;49.182;-0.348;2022-12-18T09:38:19;3.65;;;3.00;;
72493;SDS011;60520;49.182;-0.348;2022-12-18T09:40:48;3.40;;;2.85;;
72493;SDS011;60520;49.182;-0.348;2022-12-18T09:43:17;3.75;;;3.00;;
72493;SDS011;60520;49.182;-0.348;2022-12-18T09:45:45;3.22;;;2.70;;
72493;SDS011;60520;49.182;-0.348;2022-12-18T09:48:15;3.50;;;3.17;;
72493;SDS011;60520;49.182;-0.348;2022-12-18T09:50:46;4.43;;;2.67;;
72493;SDS011;60520;49.182;-0.348;2022-12-18T09:53:15;3.75;;;3.13;;
72493;SDS011;60520;49.182;-0.348;2022-12-18T09:55:43;3.28;;;2.83;;
72493;SDS011;60520;49.182;-0.348;2022-12-18T09:58:13;3.95;;;2.67;;
72493;SDS011;60520;49.182;-0.348;2022-12-18T10:00:42;3.28;;;2.88;;
72493;SDS011;60520;49.182;-0.348;2022-12-18T10:03:10;3.47;;;2.60;;
72493;SDS011;60520;49.182;-0.348;2022-12-18T10:05:39;3.72;;;2.88;;
72493;SDS011;60520;49.182;-0.348;2022-12-18T10:08:10;4.00;;;2.83;;
72493;SDS011;60520;49.182;-0.348;2022-12-18T10:10:40;3.25;;;2.72;;
72493;SDS011;60520;49.182;-0.348;2022-12-18T10:13:11;3.00;;;2.60;;
72493;SDS011;60520;49.182;-0.348;2022-12-18T10:15:41;3.50;;;2.75;;
72493;SDS011;60520;49.182;-0.348;2022-12-18T10:18:16;3.38;;;2.78;;
72493;SDS011;60520;49.182;-0.348;2022-12-18T10:20:47;3.67;;;2.85;;
72493;SDS011;60520;49.182;-0.348;2022-12-18T10:23:17;3.20;;;2.50;;
72493;SDS011;60520;49.182;-0.348;2022-12-18T10:25:50;3.00;;;2.70;;
72493;SDS011;60520;49.182;-0.348;2022-12-18T10:28:18;3.45;;;2.58;;
72493;SDS011;60520;49.182;-0.348;2022-12-18T10:30:46;3.45;;;2.70;;
72493;SDS011;60520;49.182;-0.348;2022-12-18T10:33:17;2.83;;;2.45;;
72493;SDS011;60520;49.182;-0.348;2022-12-18T10:35:45;3.50;;;2.70;;
72493;SDS011;60520;49.182;-0.348;2022-12-18T10:38:23;3.30;;;2.78;;
72493;SDS011;60520;49.182;-0.348;2022-12-18T10:40:52;4.15;;;2.80;;
72493;SDS011;60520;49.182;-0.348;2022-12-18T10:43:20;2.80;;;2.50;;
72493;SDS011;60520;49.182;-0.348;2022-12-18T10:45:58;3.30;;;2.70;;
72493;SDS011;60520;49.182;-0.348;2022-12-18T10:48:25;3.83;;;3.10;;
72493;SDS011;60520;49.182;-0.348;2022-12-18T10:50:53;3.30;;;2.75;;
72493;SDS011;60520;49.182;-0.348;2022-12-18T10:53:22;3.03;;;2.53;;
72493;SDS011;60520;49.182;-0.348;2022-12-18T10:55:50;3.38;;;2.75;;
72493;SDS011;60520;49.182;-0.348;2022-12-18T10:58:23;3.85;;;2.97;;
72493;SDS011;60520;49.182;-0.348;2022-12-18T11:01:01;3.50;;;2.50;;
72493;SDS011;60520;49.182;-0.348;2022-12-18T11:03:29;3.38;;;2.80;;
72493;SDS011;60520;49.182;-0.348;2022-12-18T11:06:07;3.20;;;2.78;;
72493;SDS011;60520;49.182;-0.348;2022-12-18T11:08:36;3.15;;;2.60;;
72493;SDS011;60520;49.182;-0.348;2022-12-18T11:11:04;3.13;;;2.80;;
72493;SDS011;60520;49.182;-0.348;2022-12-18T11:13:33;3.38;;;2.80;;
72493;SDS011;60520;49.182;-0.348;2022-12-18T11:16:00;3.60;;;2.63;;
72493;SDS011;60520;49.182;-0.348;2022-12-18T11:18:28;4.18;;;2.67;;
72493;SDS011;60520;49.182;-0.348;2022-12-18T11:20:56;2.80;;;2.50;;
72493;SDS011;60520;49.182;-0.348;2022-12-18T11:23:24;3.05;;;2.50;;
72493;SDS011;60520;49.182;-0.348;2022-12-18T11:25:53;3.38;;;2.70;;
72493;SDS011;60520;49.182;-0.348;2022-12-18T11:28:28;2.97;;;2.60;;
72493;SDS011;60520;49.182;-0.348;2022-12-18T11:31:09;3.08;;;2.50;;
72493;SDS011;60520;49.182;-0.348;2022-12-18T11:33:39;3.35;;;2.60;;
72493;SDS011;60520;49.182;-0.348;2022-12-18T11:36:08;2.83;;;2.53;;
72493;SDS011;60520;49.182;-0.348;2022-12-18T11:38:37;3.05;;;2.67;;
72493;SDS011;60520;49.182;-0.348;2022-12-18T11:41:07;3.15;;;2.50;;
72493;SDS011;60520;49.182;-0.348;2022-12-18T11:43:38;3.35;;;2.53;;
72493;SDS011;60520;49.182;-0.348;2022-12-18T11:46:08;3.20;;;2.63;;
72493;SDS011;60520;49.182;-0.348;2022-12-18T11:48:37;3.08;;;2.65;;
72493;SDS011;60520;49.182;-0.348;2022-12-18T11:51:09;3.08;;;2.60;;
72493;SDS011;60520;49.182;-0.348;2022-12-18T11:53:38;3.28;;;2.70;;
72493;SDS011;60520;49.182;-0.348;2022-12-18T11:56:11;2.60;;;2.30;;
72493;SDS011;60520;49.182;-0.348;2022-12-18T11:58:44;3.50;;;2.65;;
72493;SDS011;60520;49.182;-0.348;2022-12-18T12:01:15;4.50;;;2.92;;
72493;SDS011;60520;49.182;-0.348;2022-12-18T12:03:47;3.42;;;2.80;;
72493;SDS011;60520;49.182;-0.348;2022-12-18T12:06:17;3.03;;;2.50;;
72493;SDS011;60520;49.182;-0.348;2022-12-18T12:08:53;3.35;;;2.50;;
72493;SDS011;60520;49.182;-0.348;2022-12-18T12:11:24;2.55;;;2.33;;
72493;SDS011;60520;49.182;-0.348;2022-12-18T12:13:57;3.25;;;2.42;;
72493;SDS011;60520;49.182;-0.348;2022-12-18T12:16:29;3.90;;;3.00;;
72493;SDS011;60520;49.182;-0.348;2022-12-18T12:19:02;3.08;;;2.60;;
72493;SDS011;60520;49.182;-0.348;2022-12-18T12:21:35;3.17;;;2.60;;
72493;SDS011;60520;49.182;-0.348;2022-12-18T12:24:05;2.88;;;2.42;;
72493;SDS011;60520;49.182;-0.348;2022-12-18T12:26:42;3.08;;;2.45;;
72493;SDS011;60520;49.182;-0.348;2022-12-18T12:29:25;3.00;;;2.38;;
72493;SDS011;60520;49.182;-0.348;2022-12-18T12:32:00;3.30;;;2.60;;
72493;SDS011;60520;49.182;-0.348;2022-12-18T12:34:30;3.30;;;2.70;;
72493;SDS011;60520;49.182;-0.348;2022-12-18T12:37:06;3.42;;;2.67;;
72493;SDS011;60520;49.182;-0.348;2022-12-18T12:39:36;2.95;;;2.50;;
72493;SDS011;60520;49.182;-0.348;2022-12-18T12:42:05;3.40;;;2.80;;
72493;SDS011;60520;49.182;-0.348;2022-12-18T12:45:03;3.17;;;2.47;;
72493;SDS011;60520;49.182;-0.348;2022-12-18T12:47:32;2.80;;;2.50;;
72493;SDS011;60520;49.182;-0.348;2022-12-18T12:50:00;3.10;;;2.55;;
72493;SDS011;60520;49.182;-0.348;2022-12-18T12:52:31;3.45;;;2.75;;
72493;SDS011;60520;49.182;-0.348;2022-12-18T12:54:59;3.25;;;2.47;;
72493;SDS011;60520;49.182;-0.348;2022-12-18T12:57:30;3.42;;;2.67;;
72493;SDS011;60520;49.182;-0.348;2022-12-18T13:00:00;2.88;;;2.58;;
72493;SDS011;60520;49.182;-0.348;2022-12-18T13:02:28;3.28;;;2.55;;
72493;SDS011;60520;49.182;-0.348;2022-12-18T13:04:58;4.13;;;2.83;;
72493;SDS011;60520;49.182;-0.348;2022-12-18T13:07:27;3.17;;;2.40;;
72493;SDS011;60520;49.182;-0.348;2022-12-18T13:10:13;2.83;;;2.53;;
72493;SDS011;60520;49.182;-0.348;2022-12-18T13:12:52;3.22;;;2.58;;
72493;SDS011;60520;49.182;-0.348;2022-12-18T13:15:22;2.92;;;2.50;;
72493;SDS011;60520;49.182;-0.348;2022-12-18T13:18:02;2.90;;;2.50;;
72493;SDS011;60520;49.182;-0.348;2022-12-18T13:20:32;3.22;;;2.50;;
72493;SDS011;60520;49.182;-0.348;2022-12-18T13:23:00;2.80;;;2.40;;
72493;SDS011;60520;49.182;-0.348;2022-12-18T13:25:28;3.03;;;2.60;;
72493;SDS011;60520;49.182;-0.348;2022-12-18T13:27:59;2.88;;;2.30;;
72493;SDS011;60520;49.182;-0.348;2022-12-18T13:30:43;3.47;;;2.67;;
72493;SDS011;60520;49.182;-0.348;2022-12-18T13:36:00;3.70;;;2.65;;
72493;SDS011;60520;49.182;-0.348;2022-12-18T13:38:32;3.42;;;2.42;;
72493;SDS011;60520;49.182;-0.348;2022-12-18T13:41:00;3.10;;;2.58;;
72493;SDS011;60520;49.182;-0.348;2022-12-18T13:43:30;4.05;;;2.60;;
72493;SDS011;60520;49.182;-0.348;2022-12-18T13:46:04;2.90;;;2.60;;
72493;SDS011;60520;49.182;-0.348;2022-12-18T13:48:32;3.03;;;2.40;;
72493;SDS011;60520;49.182;-0.348;2022-12-18T13:51:02;2.60;;;2.38;;
72493;SDS011;60520;49.182;-0.348;2022-12-18T13:53:32;3.05;;;2.33;;
72493;SDS011;60520;49.182;-0.348;2022-12-18T13:56:00;3.10;;;2.22;;
72493;SDS011;60520;49.182;-0.348;2022-12-18T13:58:29;2.95;;;2.50;;
72493;SDS011;60520;49.182;-0.348;2022-12-18T14:00:56;3.10;;;2.28;;
72493;SDS011;60520;49.182;-0.348;2022-12-18T14:03:25;3.90;;;3.00;;
72493;SDS011;60520;49.182;-0.348;2022-12-18T14:05:53;2.72;;;2.35;;
72493;SDS011;60520;49.182;-0.348;2022-12-18T14:08:21;3.85;;;2.72;;
72493;SDS011;60520;49.182;-0.348;2022-12-18T14:10:48;2.72;;;2.40;;
72493;SDS011;60520;49.182;-0.348;2022-12-18T14:13:19;3.13;;;2.55;;
72493;SDS011;60520;49.182;-0.348;2022-12-18T14:15:49;2.28;;;2.03;;
72493;SDS011;60520;49.182;-0.348;2022-12-18T14:18:19;2.50;;;2.30;;
72493;SDS011;60520;49.182;-0.348;2022-12-18T14:20:47;2.90;;;2.35;;
72493;SDS011;60520;49.182;-0.348;2022-12-18T14:23:25;2.92;;;2.50;;
72493;SDS011;60520;49.182;-0.348;2022-12-18T14:25:52;3.35;;;2.55;;
72493;SDS011;60520;49.182;-0.348;2022-12-18T14:28:19;3.50;;;2.65;;
72493;SDS011;60520;49.182;-0.348;2022-12-18T14:30:48;2.88;;;2.50;;
72493;SDS011;60520;49.182;-0.348;2022-12-18T14:33:26;3.05;;;2.50;;
72493;SDS011;60520;49.182;-0.348;2022-12-18T14:36:14;2.95;;;2.40;;
72493;SDS011;60520;49.182;-0.348;2022-12-18T14:38:42;2.70;;;2.22;;
72493;SDS011;60520;49.182;-0.348;2022-12-18T14:41:10;3.38;;;2.55;;
72493;SDS011;60520;49.182;-0.348;2022-12-18T14:43:38;2.70;;;2.30;;
72493;SDS011;60520;49.182;-0.348;2022-12-18T14:46:24;3.00;;;2.30;;
72493;SDS011;60520;49.182;-0.348;2022-12-18T14:48:52;2.72;;;2.25;;